Globe, Arizona
Current Conditions -  °F | °C
As of 1:47 PM on Sunday 23 Nov 2014 (Local Time) from KIWA Reporting Station
Clear Clear  
Wind Chill: 68°   Ceiling: Unl
Heat Index: 68°   Visibility: 35mi
Dew Point: 28°   Wind: 8mph
Humidity: 23%   Direction: 290°WNW
Pressure: 30.04"   Gusts: NA
Location:  33.4°N, 110.78°W
Report Text: KIWA 232047Z 29007KT 35SM SKC 20/M02 A3004
Loading
Personal Weather Stations






























Interactive Weather Map New forecast layout! Learn more

10-Day Weather Forecast

Advertisements
Track Severe Weather on mobile